WetterOnline ( https://www.wetteronline.de )

Wetter aktuell Schleswig

Aktuelles Wetter: Schleswig (48m)

6-stündlich | Neueste Meldungen
Ortszeit Temperatur Wetter
Di, 04.10. 2:00 10.4° C bedeckt
Mo, 03.10. 20:00 12.0° C wolkig
Mo, 03.10. 14:00 16.8° C wolkig
Mo, 03.10. 8:00 10.4° C leicht bewölkt
Mo, 03.10. 2:00 9.3° C fast wolkenlos
So, 02.10. 20:00 11.2° C leicht bewölkt
So, 02.10. 14:00 13.3° C Regen
So, 02.10. 8:00 8.9° C fast wolkenlos
Ortszeit Temperatur Wetter
Di, 04.10. 3:00 10.2° C bedeckt
Di, 04.10. 2:50 10.2° C bedeckt
Di, 04.10. 2:40 10.5° C Dunst
Di, 04.10. 2:30 10.4° C wolkig
Di, 04.10. 2:20 10.4° C wolkig
Di, 04.10. 2:10 10.4° C bedeckt
Di, 04.10. 2:00 10.4° C bedeckt
Di, 04.10. 1:30 10.9° C bedeckt
Di, 04.10. 1:00 11.2° C bewölkt
Di, 04.10. 0:30 11.2° C bewölkt
Di, 04.10. 0:00 11.2° C bewölkt
Ortszeit Relative Feuchte Sichtweite
Di, 04.10. 2:00 98% 13 km
Mo, 03.10. 20:00 92% 26 km
Mo, 03.10. 14:00 73% 45 km
Mo, 03.10. 8:00 95% 23 km
Mo, 03.10. 2:00 95% 19 km
So, 02.10. 20:00 90% 27 km
So, 02.10. 14:00 84% 35 km
So, 02.10. 8:00 95% 35 km
Ortszeit Relative Feuchte Sichtweite
Di, 04.10. 3:00 97% 10 km
Di, 04.10. 2:50 97% -
Di, 04.10. 2:40 99% -
Di, 04.10. 2:30 98% 11 km
Di, 04.10. 2:20 98% -
Di, 04.10. 2:10 97% -
Di, 04.10. 2:00 98% 13 km
Di, 04.10. 1:30 98% 14 km
Di, 04.10. 1:00 98% 13 km
Di, 04.10. 0:30 97% 14 km
Di, 04.10. 0:00 96% 14 km
Ortszeit Niederschlagsmenge Niederschlagsart
Di, 04.10. 2:00 0.0 l/m2 in 6 Std. -
Mo, 03.10. 20:00 0.1 l/m2 in 12 Std. -
Mo, 03.10. 14:00 0.1 l/m2 in 6 Std. Regen
Mo, 03.10. 8:00 0.1 l/m2 in 12 Std. -
Mo, 03.10. 2:00 0.1 l/m2 in 6 Std. Sprühregen
So, 02.10. 20:00 4 l/m2 in 12 Std. Regen
So, 02.10. 14:00 4 l/m2 in 6 Std. Regen
So, 02.10. 8:00 0.9 l/m2 in 12 Std. Regen
Ortszeit Niederschlagsmenge Niederschlagsart
Di, 04.10. 3:00 0.0 l/m2 in 1 Std. -
Di, 04.10. 2:50 keine Meldung -
Di, 04.10. 2:40 keine Meldung -
Di, 04.10. 2:30 0.0 l/m2 in 1 Std. -
Di, 04.10. 2:20 keine Meldung -
Di, 04.10. 2:10 keine Meldung -
Di, 04.10. 2:00 0.0 l/m2 in 1 Std. -
Di, 04.10. 1:30 0.0 l/m2 in 1 Std. -
Di, 04.10. 1:00 0.0 l/m2 in 1 Std. -
Di, 04.10. 0:30 0.0 l/m2 in 1 Std. -
Di, 04.10. 0:00 0.0 l/m2 in 1 Std. -
Ortszeit Stärke Spitze Richtung
km/h Bft. km/h Grad Sektor
Di, 04.10. 2:00 4 1 18 230° SW
Mo, 03.10. 20:00 9 2 41 280° W
Mo, 03.10. 14:00 14 3 43 290° W
Mo, 03.10. 8:00 11 2 25 290° W
Mo, 03.10. 2:00 7 2 22 280° W
So, 02.10. 20:00 11 2 40 280° W
So, 02.10. 14:00 17 3 37 280° W
So, 02.10. 8:00 9 2 24 220° SW
Ortszeit Stärke Spitze Richtung
km/h Bft. km/h Grad Sektor
Di, 04.10. 3:00 4 1 11 220° SW
Di, 04.10. 2:50 4 1 - 220° SW
Di, 04.10. 2:40 4 1 - 240° SW
Di, 04.10. 2:30 6 1 9 240° SW
Di, 04.10. 2:20 6 1 - 240° SW
Di, 04.10. 2:10 4 1 - 240° SW
Di, 04.10. 2:00 4 1 7 230° SW
Di, 04.10. 1:30 4 1 7 240° SW
Di, 04.10. 1:00 4 1 11 240° SW
Di, 04.10. 0:30 4 1 7 250° W
Di, 04.10. 0:00 6 1 9 240° SW
Ortszeit Untergrenze Bedeckung Gattung
total tief tief mittel hoch
Di, 04.10. 2:00 5700 m 8/8 8/8 - - -
Mo, 03.10. 20:00 780 m 7/8 4/8 - - -
Mo, 03.10. 14:00 540 m 6/8 6/8 - - -
Mo, 03.10. 8:00 510 m 2/8 2/8 - - -
Mo, 03.10. 2:00 1230 m 1/8 1/8 - - -
So, 02.10. 20:00 1500 m 4/8 4/8 - - -
So, 02.10. 14:00 900 m 7/8 7/8 - - -
So, 02.10. 8:00 1800 m 1/8 1/8 - - -
Ortszeit Bedeckungsgrad in Achtel und Wolkenuntergrenze
Di, 04.10. 3:00 2(5100m) 8(6300m) 8(6900m)
Di, 04.10. 2:50 2(5100m) 8(6300m) 8(6900m)
Di, 04.10. 2:40 8
Di, 04.10. 2:30 1(420m) 8(5100m)
Di, 04.10. 2:20 1(420m) 8(5100m)
Di, 04.10. 2:10 8
Di, 04.10. 2:00 8(5700m) 8(8100m) 8(10500m)
Di, 04.10. 1:30 6(6000m) 8(6600m)
Di, 04.10. 1:00 5(480m) 8(6600m) 8(7500m)
Di, 04.10. 0:30 7(510m) 8(6300m) 8(6900m)
Di, 04.10. 0:00 7(510m) 7(7200m) 7(9000m)
Ortszeit Luftdruck NN (hPa) Tendenz (hPa in 3 Std.)
Di, 04.10. 2:00 1022 - 0,9
Mo, 03.10. 20:00 1023 - 0,1
Mo, 03.10. 14:00 1023 0,0
Mo, 03.10. 8:00 1022 + 0,9
Mo, 03.10. 2:00 1020 + 1,5
So, 02.10. 20:00 1016 + 2,2
So, 02.10. 14:00 1012 + 1,4
So, 02.10. 8:00 1009 + 1,0
Ortszeit Luftdruck NN (hPa) Tendenz (hPa in 3 Std.)
Di, 04.10. 3:00 1021 - 1,3
Di, 04.10. 2:50 1021 keine Meldung
Di, 04.10. 2:40 1022 keine Meldung
Di, 04.10. 2:30 1022 - 1,1
Di, 04.10. 2:20 1022 keine Meldung
Di, 04.10. 2:10 1022 keine Meldung
Di, 04.10. 2:00 1022 - 0,9
Di, 04.10. 1:30 1022 - 0,8
Di, 04.10. 1:00 1022 - 0,7
Di, 04.10. 0:30 1023 - 0,4
Di, 04.10. 0:00 1023 - 0,1
Ortszeit Schneehöhe (cm)
Di, 04.10. 2:00 0
Mo, 03.10. 20:00 0
Mo, 03.10. 14:00 0
Mo, 03.10. 8:00 0
Mo, 03.10. 2:00 0
So, 02.10. 20:00 0
So, 02.10. 14:00 0
So, 02.10. 8:00 0
Ortszeit Schneehöhe (cm)
Di, 04.10. 3:00 0
Di, 04.10. 2:50 0
Di, 04.10. 2:40 0
Di, 04.10. 2:30 0
Di, 04.10. 2:20 0
Di, 04.10. 2:10 0
Di, 04.10. 2:00 0
Di, 04.10. 1:30 0
Di, 04.10. 1:00 0
Di, 04.10. 0:30 0
Di, 04.10. 0:00 0
Link zu dieser Seite / Seite empfehlen

Das Wetter in ...